Time;durP1;ratioP1;P1;durP2;ratioP2;P2;SDS_P1;SDS_P2;PMS_P1;PMS_P2;Temp;Humidity;BMP_temperature;BMP_pressure;BME280_temperature;BME280_humidity;BME280_pressure;Samples;Min_cycle;Max_cycle;Signal;HPM_P1;HPM_P2
2021/06/22 00:01:57;;;;;;;16.17;11.75;;;;;;;;;;5076675;28;20036;-81
2021/06/22 00:04:23;;;;;;;14.80;12.52;;;;;;;;;;5076644;28;20065;-81
2021/06/22 00:06:50;;;;;;;18.77;13.25;;;;;;;;;;5076586;28;20028;-81
2021/06/22 00:09:16;;;;;;;22.83;14.07;;;;;;;;;;5076884;28;20142;-81
2021/06/22 00:11:42;;;;;;;27.65;12.95;;;;;;;;;;5076784;28;20032;-81
2021/06/22 00:14:08;;;;;;;26.98;15.18;;;;;;;;;;5076372;28;20406;-81
2021/06/22 00:16:34;;;;;;;21.58;12.30;;;;;;;;;;5076379;28;20044;-81
2021/06/22 00:19:00;;;;;;;16.85;11.60;;;;;;;;;;5076516;28;20082;-82
2021/06/22 00:21:26;;;;;;;15.38;11.45;;;;;;;;;;5076401;28;20027;-82
2021/06/22 00:23:52;;;;;;;11.35;10.15;;;;;;;;;;5076462;28;20056;-82
2021/06/22 00:26:18;;;;;;;15.02;10.00;;;;;;;;;;5076342;28;20024;-82
2021/06/22 00:28:44;;;;;;;12.93;8.88;;;;;;;;;;5075363;28;20020;-83
2021/06/22 00:31:12;;;;;;;12.95;9.40;;;;;;;;;;5076524;28;20021;-82
2021/06/22 00:33:38;;;;;;;16.67;8.93;;;;;;;;;;5076352;28;20131;-82
2021/06/22 00:36:05;;;;;;;11.05;9.88;;;;;;;;;;5076290;28;20054;-82
2021/06/22 00:38:31;;;;;;;15.25;7.82;;;;;;;;;;5075340;28;20410;-81
2021/06/22 00:40:57;;;;;;;12.43;8.73;;;;;;;;;;5076441;28;20024;-81
2021/06/22 00:43:23;;;;;;;10.52;9.23;;;;;;;;;;5078796;28;20035;-82
2021/06/22 00:45:49;;;;;;;12.35;8.30;;;;;;;;;;5079759;28;20044;-82
2021/06/22 00:48:15;;;;;;;9.40;8.50;;;;;;;;;;5079659;28;20406;-82
2021/06/22 00:50:41;;;;;;;11.65;9.05;;;;;;;;;;5079918;28;20032;-82
2021/06/22 00:53:08;;;;;;;12.38;8.40;;;;;;;;;;5079687;28;20021;-81
2021/06/22 00:55:34;;;;;;;16.63;8.85;;;;;;;;;;5079793;28;20416;-82
2021/06/22 00:58:02;;;;;;;10.73;8.48;;;;;;;;;;5079905;28;20357;-82
2021/06/22 01:00:28;;;;;;;10.45;8.60;;;;;;;;;;5079811;28;20352;-83
2021/06/22 01:02:55;;;;;;;10.60;8.10;;;;;;;;;;5079614;28;20074;-82
2021/06/22 01:05:21;;;;;;;10.82;8.00;;;;;;;;;;5079448;28;20029;-82
2021/06/22 01:07:48;;;;;;;9.25;8.02;;;;;;;;;;5079674;28;20028;-82
2021/06/22 01:10:14;;;;;;;10.75;8.50;;;;;;;;;;5078505;28;20115;-83
2021/06/22 01:12:40;;;;;;;10.50;8.50;;;;;;;;;;5079427;28;20096;-82
2021/06/22 01:15:16;;;;;;;8.82;7.90;;;;;;;;;;5079153;28;20041;-83
2021/06/22 01:17:43;;;;;;;9.75;8.77;;;;;;;;;;5079281;28;20104;-82
2021/06/22 01:20:09;;;;;;;8.70;7.90;;;;;;;;;;5078103;28;20029;-82
2021/06/22 01:22:35;;;;;;;11.40;7.68;;;;;;;;;;5078140;28;20021;-82
2021/06/22 01:25:01;;;;;;;9.32;8.43;;;;;;;;;;5078390;28;20073;-83
2021/06/22 01:27:28;;;;;;;10.27;7.90;;;;;;;;;;5079213;28;20032;-82
2021/06/22 01:29:54;;;;;;;10.60;8.15;;;;;;;;;;5078963;28;20024;-82
2021/06/22 01:32:20;;;;;;;10.05;8.00;;;;;;;;;;5079067;28;20315;-82
2021/06/22 01:34:47;;;;;;;9.95;7.97;;;;;;;;;;5079024;28;20040;-82
2021/06/22 01:37:13;;;;;;;10.88;7.88;;;;;;;;;;5078958;28;20036;-82
2021/06/22 01:39:39;;;;;;;10.27;7.95;;;;;;;;;;5078997;28;20041;-81
2021/06/22 01:42:06;;;;;;;9.25;8.07;;;;;;;;;;5077879;28;20461;-82
2021/06/22 01:44:33;;;;;;;13.13;9.10;;;;;;;;;;5078726;28;20127;-82
2021/06/22 01:46:59;;;;;;;10.95;8.52;;;;;;;;;;5078646;28;20020;-81
2021/06/22 01:49:25;;;;;;;12.18;8.52;;;;;;;;;;5078670;28;20059;-81
2021/06/22 01:51:51;;;;;;;9.85;8.95;;;;;;;;;;5078543;28;20024;-82
2021/06/22 01:54:17;;;;;;;12.32;8.68;;;;;;;;;;5078411;28;20025;-81
2021/06/22 01:56:49;;;;;;;10.00;8.68;;;;;;;;;;5078413;28;20108;-81
2021/06/22 01:59:15;;;;;;;8.88;7.97;;;;;;;;;;5077330;28;20029;-82
2021/06/22 02:01:42;;;;;;;12.27;9.40;;;;;;;;;;5078688;28;20024;-82
2021/06/22 02:04:08;;;;;;;9.60;8.50;;;;;;;;;;5078675;28;20020;-82
2021/06/22 02:06:35;;;;;;;9.85;8.65;;;;;;;;;;5078137;28;20032;-81
2021/06/22 02:09:01;;;;;;;9.57;8.63;;;;;;;;;;5078453;28;20338;-81
2021/06/22 02:11:27;;;;;;;9.02;8.23;;;;;;;;;;5077126;28;20111;-81
2021/06/22 02:13:53;;;;;;;12.00;9.02;;;;;;;;;;5078083;28;20040;-81
2021/06/22 02:16:19;;;;;;;11.70;8.80;;;;;;;;;;5078118;28;20048;-83
2021/06/22 02:18:45;;;;;;;11.98;8.40;;;;;;;;;;5077126;28;20132;-83
2021/06/22 02:21:12;;;;;;;13.38;9.00;;;;;;;;;;5078093;28;20411;-83
2021/06/22 02:23:38;;;;;;;10.82;9.05;;;;;;;;;;5078458;28;20029;-83
2021/06/22 02:26:05;;;;;;;10.07;8.63;;;;;;;;;;5078335;28;20407;-83
2021/06/22 02:28:50;;;;;;;12.63;9.20;;;;;;;;;;5077057;28;20036;-83
2021/06/22 02:31:16;;;;;;;10.80;8.70;;;;;;;;;;5076882;28;20027;-83
2021/06/22 02:33:42;;;;;;;9.35;8.38;;;;;;;;;;5077892;28;20024;-83
2021/06/22 02:36:10;;;;;;;11.43;8.20;;;;;;;;;;5077813;28;20020;-83
2021/06/22 02:38:36;;;;;;;10.40;7.53;;;;;;;;;;5077700;28;20433;-83
2021/06/22 02:41:02;;;;;;;10.60;8.48;;;;;;;;;;5077829;28;20039;-83
2021/06/22 02:43:28;;;;;;;8.75;7.70;;;;;;;;;;5077400;28;20031;-83
2021/06/22 02:45:54;;;;;;;9.45;7.68;;;;;;;;;;5077670;28;20039;-83
2021/06/22 02:48:20;;;;;;;9.85;8.10;;;;;;;;;;5077498;28;20162;-83
2021/06/22 02:50:46;;;;;;;10.43;7.97;;;;;;;;;;5077819;28;20021;-82
2021/06/22 02:53:12;;;;;;;8.35;7.55;;;;;;;;;;5077508;28;20032;-82
2021/06/22 02:55:40;;;;;;;10.02;7.50;;;;;;;;;;5076442;28;20040;-83
2021/06/22 02:58:06;;;;;;;10.90;8.00;;;;;;;;;;5077470;28;20135;-82
2021/06/22 03:00:33;;;;;;;11.10;8.57;;;;;;;;;;5077211;28;20033;-82
2021/06/22 03:02:59;;;;;;;11.75;8.80;;;;;;;;;;5077709;28;20142;-82
2021/06/22 03:05:26;;;;;;;9.00;7.68;;;;;;;;;;5076653;28;20343;-83
2021/06/22 03:07:52;;;;;;;9.70;8.10;;;;;;;;;;5077466;28;20035;-83
2021/06/22 03:10:19;;;;;;;8.38;7.55;;;;;;;;;;5076430;28;20025;-82
2021/06/22 03:12:46;;;;;;;9.55;8.07;;;;;;;;;;5076210;28;20024;-83
2021/06/22 03:15:13;;;;;;;9.15;8.25;;;;;;;;;;5070570;28;20061;-83
2021/06/22 03:17:39;;;;;;;9.07;8.18;;;;;;;;;;5076363;28;20123;-83
2021/06/22 03:20:06;;;;;;;11.57;8.43;;;;;;;;;;5077244;28;20052;-83
2021/06/22 03:22:32;;;;;;;9.52;8.57;;;;;;;;;;5077374;28;20104;-83
2021/06/22 03:24:58;;;;;;;10.32;8.18;;;;;;;;;;5077183;28;20108;-83
2021/06/22 03:27:24;;;;;;;10.52;7.90;;;;;;;;;;5077135;28;20035;-83
2021/06/22 03:29:50;;;;;;;9.88;8.00;;;;;;;;;;5077090;28;20052;-83
2021/06/22 03:32:16;;;;;;;11.57;8.75;;;;;;;;;;5077303;28;20017;-82
2021/06/22 03:34:43;;;;;;;10.93;8.18;;;;;;;;;;5076960;28;20086;-82
2021/06/22 03:37:09;;;;;;;11.75;8.43;;;;;;;;;;5076846;28;20437;-80
2021/06/22 03:39:36;;;;;;;13.23;8.65;;;;;;;;;;5076125;28;20051;-81
2021/06/22 03:42:02;;;;;;;11.15;8.32;;;;;;;;;;5076863;28;20434;-80
2021/06/22 03:44:28;;;;;;;10.45;8.68;;;;;;;;;;5075594;28;20333;-81
2021/06/22 03:46:54;;;;;;;9.95;8.77;;;;;;;;;;5077088;28;20028;-81
2021/06/22 03:49:20;;;;;;;9.23;8.20;;;;;;;;;;5076773;28;20024;-81
2021/06/22 03:51:48;;;;;;;9.10;8.18;;;;;;;;;;5076877;28;20024;-80
2021/06/22 03:54:14;;;;;;;9.65;8.13;;;;;;;;;;5076722;28;20025;-81
2021/06/22 03:56:40;;;;;;;11.15;9.00;;;;;;;;;;5076690;28;20024;-80
2021/06/22 03:59:06;;;;;;;10.88;8.07;;;;;;;;;;5076936;28;20020;-81
2021/06/22 04:01:33;;;;;;;14.77;8.68;;;;;;;;;;5076804;28;20031;-83
2021/06/22 04:03:59;;;;;;;11.00;8.85;;;;;;;;;;5076623;28;20021;-82
2021/06/22 04:06:25;;;;;;;12.15;8.88;;;;;;;;;;5075527;28;20029;-82
2021/06/22 04:08:51;;;;;;;12.95;8.93;;;;;;;;;;5076598;28;20061;-81
2021/06/22 04:11:17;;;;;;;9.77;8.77;;;;;;;;;;5076504;28;20057;-81
2021/06/22 04:13:43;;;;;;;14.85;11.40;;;;;;;;;;5076390;28;20021;-82
2021/06/22 04:16:09;;;;;;;13.63;10.23;;;;;;;;;;5077108;28;20422;-81
2021/06/22 04:18:35;;;;;;;13.85;10.57;;;;;;;;;;5080488;28;20051;-82
2021/06/22 04:21:02;;;;;;;12.38;9.75;;;;;;;;;;5079243;28;20415;-81
2021/06/22 04:23:28;;;;;;;11.60;9.40;;;;;;;;;;5080038;28;20403;-81
2021/06/22 04:25:54;;;;;;;12.55;9.80;;;;;;;;;;5093960;28;20039;-82
2021/06/22 04:28:20;;;;;;;12.73;9.82;;;;;;;;;;5100484;28;20028;-81
2021/06/22 04:30:46;;;;;;;13.50;9.32;;;;;;;;;;5100466;28;20099;-81
2021/06/22 04:33:12;;;;;;;12.80;9.77;;;;;;;;;;5099307;28;20031;-81
2021/06/22 04:35:38;;;;;;;12.45;10.45;;;;;;;;;;5100366;28;20020;-81
2021/06/22 04:38:05;;;;;;;14.77;10.27;;;;;;;;;;5100533;28;20318;-81
2021/06/22 04:40:32;;;;;;;14.32;9.70;;;;;;;;;;5099408;28;20028;-81
2021/06/22 04:42:58;;;;;;;13.35;9.88;;;;;;;;;;5095514;28;20360;-81
2021/06/22 04:45:24;;;;;;;13.65;10.45;;;;;;;;;;5085703;28;20326;-82
2021/06/22 04:47:50;;;;;;;14.23;11.05;;;;;;;;;;5090280;28;20374;-80
2021/06/22 04:50:16;;;;;;;19.02;10.88;;;;;;;;;;5099800;28;20317;-80
2021/06/22 04:52:42;;;;;;;19.52;11.38;;;;;;;;;;5092466;28;20024;-80
2021/06/22 04:55:13;;;;;;;15.60;10.52;;;;;;;;;;5083344;28;20027;-81
2021/06/22 04:57:40;;;;;;;16.50;13.90;;;;;;;;;;5081242;28;20081;-82
2021/06/22 05:00:07;;;;;;;22.05;16.13;;;;;;;;;;5078827;28;20032;-81
2021/06/22 05:02:34;;;;;;;22.42;14.88;;;;;;;;;;5079639;28;20047;-82
2021/06/22 05:16:49;;;;;;;20.98;14.13;;;;;;;;;;5148429;27;20353;-81
2021/06/22 05:19:15;;;;;;;16.92;11.40;;;;;;;;;;5115089;28;20028;-81
2021/06/22 05:21:41;;;;;;;20.70;11.10;;;;;;;;;;5113905;28;20039;-81
2021/06/22 05:24:07;;;;;;;15.15;11.25;;;;;;;;;;5114832;28;20028;-81
2021/06/22 05:26:34;;;;;;;19.25;10.85;;;;;;;;;;5114726;28;20133;-81
2021/06/22 05:29:00;;;;;;;20.58;11.63;;;;;;;;;;5113807;28;20043;-82
2021/06/22 05:31:26;;;;;;;17.60;11.85;;;;;;;;;;5114486;28;20031;-82
2021/06/22 05:33:52;;;;;;;18.02;11.35;;;;;;;;;;5114435;28;20028;-82
2021/06/22 05:36:18;;;;;;;22.67;12.68;;;;;;;;;;5113346;28;20035;-81
2021/06/22 05:38:45;;;;;;;19.10;12.35;;;;;;;;;;5114416;28;20389;-82
2021/06/22 05:41:11;;;;;;;22.75;12.70;;;;;;;;;;5114461;28;20020;-81
2021/06/22 05:43:37;;;;;;;23.65;14.15;;;;;;;;;;5114409;28;20111;-82
2021/06/22 05:46:04;;;;;;;19.88;12.93;;;;;;;;;;5114484;28;20095;-81
2021/06/22 05:48:30;;;;;;;17.88;12.68;;;;;;;;;;5114315;28;20020;-82
2021/06/22 05:50:56;;;;;;;23.05;12.35;;;;;;;;;;5114520;28;20027;-81
2021/06/22 05:53:22;;;;;;;20.40;13.32;;;;;;;;;;5114396;28;20024;-81
2021/06/22 05:55:48;;;;;;;22.42;12.82;;;;;;;;;;5113297;28;20024;-81
2021/06/22 05:58:15;;;;;;;25.15;11.80;;;;;;;;;;5113308;28;20484;-81
2021/06/22 06:00:41;;;;;;;18.88;11.93;;;;;;;;;;5114019;28;20375;-81
2021/06/22 06:03:07;;;;;;;21.10;13.30;;;;;;;;;;5113010;28;20428;-81
2021/06/22 06:05:33;;;;;;;24.63;12.70;;;;;;;;;;5113900;28;20031;-81
2021/06/22 06:07:59;;;;;;;25.17;15.68;;;;;;;;;;5113939;28;20131;-81
2021/06/22 06:10:25;;;;;;;23.40;14.20;;;;;;;;;;5112846;28;20020;-81
2021/06/22 06:12:52;;;;;;;20.75;13.80;;;;;;;;;;5113910;28;20024;-81
2021/06/22 06:15:18;;;;;;;26.23;13.98;;;;;;;;;;5113601;28;20054;-82
2021/06/22 06:17:45;;;;;;;19.20;11.90;;;;;;;;;;5100174;28;20031;-79
2021/06/22 06:20:12;;;;;;;21.42;12.52;;;;;;;;;;5099919;28;20028;-81
2021/06/22 06:22:38;;;;;;;20.15;12.45;;;;;;;;;;5100234;28;20028;-81
2021/06/22 06:25:05;;;;;;;20.35;12.45;;;;;;;;;;5099006;28;20406;-80
2021/06/22 06:30:16;;;;;;;25.77;14.98;;;;;;;;;;5099944;28;20027;-81
2021/06/22 06:32:42;;;;;;;37.50;22.48;;;;;;;;;;5099948;28;20028;-80
2021/06/22 06:35:08;;;;;;;25.23;16.77;;;;;;;;;;5099616;28;20589;-79
2021/06/22 06:37:34;;;;;;;17.77;12.23;;;;;;;;;;5099703;28;20048;-79
2021/06/22 06:40:00;;;;;;;25.00;13.88;;;;;;;;;;5099695;28;20024;-80
2021/06/22 06:42:26;;;;;;;20.08;12.02;;;;;;;;;;5098803;28;20063;-79
2021/06/22 06:44:52;;;;;;;26.58;13.82;;;;;;;;;;5099494;28;20024;-79
2021/06/22 06:47:19;;;;;;;25.45;15.73;;;;;;;;;;5099458;28;20024;-80
2021/06/22 06:49:45;;;;;;;26.15;12.10;;;;;;;;;;5099386;28;20023;-79
2021/06/22 06:52:11;;;;;;;29.08;14.23;;;;;;;;;;5098549;28;20124;-79
2021/06/22 06:54:37;;;;;;;34.90;17.02;;;;;;;;;;5099360;28;20023;-79
2021/06/22 06:57:03;;;;;;;23.42;13.65;;;;;;;;;;5098501;28;20043;-80
2021/06/22 06:59:29;;;;;;;25.33;11.57;;;;;;;;;;5099038;28;20028;-80
2021/06/22 07:01:55;;;;;;;26.60;12.02;;;;;;;;;;5099196;28;20020;-80
2021/06/22 07:04:21;;;;;;;19.95;12.30;;;;;;;;;;5098947;28;20028;-80
2021/06/22 07:06:48;;;;;;;22.85;13.15;;;;;;;;;;5099302;28;20024;-80
2021/06/22 07:09:14;;;;;;;21.55;12.25;;;;;;;;;;5099306;28;20057;-79
2021/06/22 07:11:40;;;;;;;21.77;11.27;;;;;;;;;;5099022;28;20401;-80
2021/06/22 07:14:06;;;;;;;23.67;12.10;;;;;;;;;;5099169;28;20024;-79
2021/06/22 07:16:33;;;;;;;22.50;12.55;;;;;;;;;;5098907;28;20422;-80
2021/06/22 07:18:59;;;;;;;26.65;12.65;;;;;;;;;;5098481;28;20039;-79
2021/06/22 07:21:25;;;;;;;21.65;11.18;;;;;;;;;;5098801;28;20016;-79
2021/06/22 07:23:52;;;;;;;23.88;11.82;;;;;;;;;;5097817;28;20031;-80
2021/06/22 07:26:19;;;;;;;25.10;10.10;;;;;;;;;;5098215;28;20036;-79
2021/06/22 07:28:45;;;;;;;22.77;11.30;;;;;;;;;;5097780;28;20107;-79
2021/06/22 07:31:12;;;;;;;24.48;10.52;;;;;;;;;;5098916;28;20024;-80
2021/06/22 07:33:38;;;;;;;25.17;9.65;;;;;;;;;;5098681;28;20374;-79
2021/06/22 07:36:09;;;;;;;24.88;9.27;;;;;;;;;;5098949;28;20113;-79
2021/06/22 07:38:35;;;;;;;24.73;8.80;;;;;;;;;;5097562;28;20090;-79
2021/06/22 07:41:01;;;;;;;25.90;10.52;;;;;;;;;;5097683;28;20381;-79
2021/06/22 07:43:27;;;;;;;21.00;9.82;;;;;;;;;;5098679;28;20062;-79
2021/06/22 07:45:53;;;;;;;27.13;10.00;;;;;;;;;;5098288;28;20051;-79
2021/06/22 07:48:19;;;;;;;25.33;7.82;;;;;;;;;;5098446;28;20023;-79
2021/06/22 07:50:46;;;;;;;22.95;8.02;;;;;;;;;;5097594;28;20028;-79
2021/06/22 07:53:12;;;;;;;19.63;9.25;;;;;;;;;;5098338;28;20020;-79
2021/06/22 07:55:38;;;;;;;24.38;8.57;;;;;;;;;;5098265;28;20436;-79
2021/06/22 07:58:04;;;;;;;26.73;10.10;;;;;;;;;;5098275;28;20027;-79
2021/06/22 08:00:38;;;;;;;26.00;9.13;;;;;;;;;;5098300;28;20440;-79
2021/06/22 08:03:05;;;;;;;29.27;10.55;;;;;;;;;;5098351;28;20115;-80
2021/06/22 08:05:31;;;;;;;32.47;8.90;;;;;;;;;;5097861;28;20024;-79
2021/06/22 08:07:57;;;;;;;26.55;8.20;;;;;;;;;;5098176;28;20027;-79
2021/06/22 08:10:23;;;;;;;27.02;8.00;;;;;;;;;;5098054;28;20019;-79
2021/06/22 08:12:49;;;;;;;23.80;8.40;;;;;;;;;;5097832;28;20020;-79
2021/06/22 08:15:15;;;;;;;28.73;8.10;;;;;;;;;;5097582;28;20050;-80
2021/06/22 08:17:41;;;;;;;28.60;7.70;;;;;;;;;;5097861;28;20356;-79
2021/06/22 08:20:08;;;;;;;28.35;8.18;;;;;;;;;;5097703;28;20043;-79
2021/06/22 08:22:34;;;;;;;28.95;7.57;;;;;;;;;;5098042;28;20363;-80
2021/06/22 08:25:01;;;;;;;28.30;7.97;;;;;;;;;;5096520;28;20028;-80
2021/06/22 08:27:27;;;;;;;25.00;8.18;;;;;;;;;;5097858;28;20102;-80
2021/06/22 08:29:53;;;;;;;30.27;7.65;;;;;;;;;;5097725;28;20377;-80
2021/06/22 08:32:19;;;;;;;23.58;7.47;;;;;;;;;;5097535;28;20032;-80
2021/06/22 08:34:45;;;;;;;30.48;8.07;;;;;;;;;;5096345;28;20445;-79
2021/06/22 08:37:11;;;;;;;30.80;7.68;;;;;;;;;;5097492;28;20348;-81
2021/06/22 08:39:37;;;;;;;33.50;8.05;;;;;;;;;;5097155;28;20025;-80
2021/06/22 08:42:06;;;;;;;30.38;8.75;;;;;;;;;;5099265;28;20040;-80
2021/06/22 08:44:33;;;;;;;27.02;8.70;;;;;;;;;;5097998;28;20028;-79
2021/06/22 08:46:59;;;;;;;33.03;6.88;;;;;;;;;;5096444;28;20032;-79
2021/06/22 08:49:26;;;;;;;27.13;7.88;;;;;;;;;;5097173;28;20027;-79
2021/06/22 08:51:52;;;;;;;24.67;6.90;;;;;;;;;;5097305;28;20066;-79
2021/06/22 08:54:18;;;;;;;34.55;7.95;;;;;;;;;;5097280;28;20024;-79
2021/06/22 08:56:44;;;;;;;29.42;6.70;;;;;;;;;;5097506;28;20020;-78
2021/06/22 08:59:10;;;;;;;33.42;7.28;;;;;;;;;;5097272;28;20030;-78
2021/06/22 09:01:36;;;;;;;36.38;7.68;;;;;;;;;;5097215;28;20309;-78
2021/06/22 09:04:03;;;;;;;31.80;6.90;;;;;;;;;;5096940;28;20036;-78
2021/06/22 09:06:39;;;;;;;32.72;6.78;;;;;;;;;;5097300;28;20016;-79
2021/06/22 09:09:06;;;;;;;32.92;6.38;;;;;;;;;;5097235;28;20458;-79
2021/06/22 09:11:32;;;;;;;67.88;40.65;;;;;;;;;;5096990;28;20031;-79
2021/06/22 09:14:03;;;;;;;32.45;10.27;;;;;;;;;;5097013;28;20025;-78
2021/06/22 09:16:29;;;;;;;34.53;8.52;;;;;;;;;;5095107;28;20410;-79
2021/06/22 09:19:03;;;;;;;35.30;9.05;;;;;;;;;;5095929;28;20024;-79
2021/06/22 09:21:29;;;;;;;30.70;7.53;;;;;;;;;;5097062;28;20103;-78
2021/06/22 09:23:57;;;;;;;30.55;6.88;;;;;;;;;;5097182;28;20142;-78
2021/06/22 09:26:30;;;;;;;26.48;6.93;;;;;;;;;;5097076;28;20028;-78
2021/06/22 09:29:09;;;;;;;34.97;7.45;;;;;;;;;;5097037;28;20045;-78
2021/06/22 09:31:35;;;;;;;33.95;7.18;;;;;;;;;;5095787;28;20020;-79
2021/06/22 09:34:01;;;;;;;44.70;8.02;;;;;;;;;;5096628;28;20024;-78
2021/06/22 09:36:29;;;;;;;36.80;7.30;;;;;;;;;;5096800;28;20020;-79
2021/06/22 09:38:56;;;;;;;28.15;6.90;;;;;;;;;;5096924;28;20036;-78
2021/06/22 09:41:22;;;;;;;28.50;6.43;;;;;;;;;;5096851;28;20103;-78
2021/06/22 09:44:09;;;;;;;29.10;6.68;;;;;;;;;;5096930;28;20020;-78
2021/06/22 09:46:45;;;;;;;39.17;7.20;;;;;;;;;;5096547;28;20317;-78
2021/06/22 09:49:12;;;;;;;35.53;7.25;;;;;;;;;;5095769;28;20344;-78
2021/06/22 09:51:45;;;;;;;43.95;7.75;;;;;;;;;;5097202;28;20341;-78
2021/06/22 09:54:12;;;;;;;51.17;6.65;;;;;;;;;;5099798;28;20031;-78
2021/06/22 09:56:50;;;;;;;47.75;7.00;;;;;;;;;;5100522;28;20016;-78
2021/06/22 09:59:16;;;;;;;40.55;7.13;;;;;;;;;;5100504;28;20020;-78
2021/06/22 10:01:42;;;;;;;32.70;5.88;;;;;;;;;;5099409;28;20059;-79
2021/06/22 10:04:13;;;;;;;42.75;6.35;;;;;;;;;;5100577;28;20035;-78
2021/06/22 10:06:39;;;;;;;40.95;7.50;;;;;;;;;;5100390;28;20023;-79
2021/06/22 10:09:06;;;;;;;35.17;5.93;;;;;;;;;;5099120;28;20425;-79
2021/06/22 10:11:32;;;;;;;38.75;7.00;;;;;;;;;;5100219;28;20343;-79
2021/06/22 10:13:58;;;;;;;38.50;6.35;;;;;;;;;;5100161;28;20068;-79
2021/06/22 10:16:25;;;;;;;44.83;7.53;;;;;;;;;;5099885;28;20040;-78
2021/06/22 10:18:52;;;;;;;35.45;7.03;;;;;;;;;;5100164;28;20031;-78
2021/06/22 10:21:18;;;;;;;32.75;6.13;;;;;;;;;;5100227;28;20032;-79
2021/06/22 10:23:44;;;;;;;38.15;7.03;;;;;;;;;;5099370;28;20032;-79
2021/06/22 10:26:11;;;;;;;33.80;7.78;;;;;;;;;;5100251;28;20084;-78
2021/06/22 10:28:37;;;;;;;33.70;7.30;;;;;;;;;;5098946;28;20028;-78
2021/06/22 10:31:04;;;;;;;29.48;6.38;;;;;;;;;;5100190;28;20021;-78
2021/06/22 10:33:31;;;;;;;37.08;7.30;;;;;;;;;;5099901;28;20032;-78
2021/06/22 10:36:00;;;;;;;46.80;7.00;;;;;;;;;;5099692;28;20024;-78
2021/06/22 10:38:26;;;;;;;30.30;6.10;;;;;;;;;;5099803;28;20051;-78
2021/06/22 10:40:56;;;;;;;37.00;6.72;;;;;;;;;;5099791;28;20043;-78
2021/06/22 10:43:34;;;;;;;39.38;7.82;;;;;;;;;;5099849;28;20032;-78
2021/06/22 10:46:06;;;;;;;30.75;6.05;;;;;;;;;;5099717;28;20028;-78
2021/06/22 10:48:45;;;;;;;41.30;7.15;;;;;;;;;;5099737;28;20099;-79
2021/06/22 10:51:32;;;;;;;38.78;6.45;;;;;;;;;;5099423;28;20034;-78
2021/06/22 10:53:59;;;;;;;38.80;6.38;;;;;;;;;;5099714;28;20024;-79
2021/06/22 10:56:26;;;;;;;36.17;6.95;;;;;;;;;;5099494;28;20107;-78
2021/06/22 10:59:11;;;;;;;34.33;5.63;;;;;;;;;;5099314;28;20024;-78
2021/06/22 11:01:55;;;;;;;30.55;6.05;;;;;;;;;;5099629;28;20066;-79
2021/06/22 11:04:22;;;;;;;43.42;6.07;;;;;;;;;;5098070;28;20028;-78
2021/06/22 11:07:12;;;;;;;34.42;5.47;;;;;;;;;;5099281;28;20020;-78
2021/06/22 11:09:38;;;;;;;32.53;5.70;;;;;;;;;;5086010;28;20033;-79
2021/06/22 11:12:20;;;;;;;34.85;6.72;;;;;;;;;;5099109;28;20036;-78
2021/06/22 11:15:04;;;;;;;32.67;5.57;;;;;;;;;;5098760;28;20044;-79
2021/06/22 11:17:43;;;;;;;41.05;6.13;;;;;;;;;;5097994;28;20406;-78
2021/06/22 11:20:14;;;;;;;34.20;6.60;;;;;;;;;;5098872;28;20028;-79
2021/06/22 11:22:59;;;;;;;33.60;6.47;;;;;;;;;;5098773;28;20360;-78
2021/06/22 11:25:25;;;;;;;43.88;7.95;;;;;;;;;;5097714;28;20050;-78
2021/06/22 11:28:02;;;;;;;41.17;6.68;;;;;;;;;;5098406;28;20069;-78
2021/06/22 11:30:46;;;;;;;37.20;7.25;;;;;;;;;;5097642;28;20034;-78
2021/06/22 11:33:31;;;;;;;40.13;7.00;;;;;;;;;;5098749;28;20031;-79
2021/06/22 11:36:17;;;;;;;47.70;6.85;;;;;;;;;;5098337;28;20410;-79
2021/06/22 11:38:44;;;;;;;39.75;6.43;;;;;;;;;;5096590;28;20410;-79
2021/06/22 11:41:11;;;;;;;38.55;7.68;;;;;;;;;;5096614;28;20053;-79
2021/06/22 11:43:37;;;;;;;45.50;6.80;;;;;;;;;;5096624;28;20089;-79
2021/06/22 11:46:21;;;;;;;43.90;8.38;;;;;;;;;;5096471;28;20341;-79
2021/06/22 11:48:59;;;;;;;36.53;7.18;;;;;;;;;;5096493;28;20024;-79
2021/06/22 11:51:44;;;;;;;39.40;8.65;;;;;;;;;;5096482;28;20071;-78
2021/06/22 11:54:10;;;;;;;38.00;9.52;;;;;;;;;;5096012;28;20035;-77
2021/06/22 11:56:36;;;;;;;33.60;6.10;;;;;;;;;;5096271;28;20028;-78
2021/06/22 11:59:03;;;;;;;33.80;6.35;;;;;;;;;;5096006;28;20123;-78
2021/06/22 12:01:29;;;;;;;42.13;7.03;;;;;;;;;;5095677;28;20035;-78
2021/06/22 12:03:55;;;;;;;38.25;6.93;;;;;;;;;;5096040;28;20040;-78
2021/06/22 12:06:22;;;;;;;41.25;7.00;;;;;;;;;;5095761;28;20367;-79
2021/06/22 12:08:48;;;;;;;39.00;7.25;;;;;;;;;;5095652;28;20067;-78
2021/06/22 12:11:27;;;;;;;41.80;8.55;;;;;;;;;;5096148;28;20065;-79
2021/06/22 12:13:53;;;;;;;35.83;7.28;;;;;;;;;;5095667;28;20024;-78
2021/06/22 12:16:23;;;;;;;32.92;6.57;;;;;;;;;;5097039;28;20044;-79
2021/06/22 12:18:49;;;;;;;37.30;7.38;;;;;;;;;;5097805;28;20024;-79
2021/06/22 12:21:15;;;;;;;41.88;7.32;;;;;;;;;;5097808;28;20019;-79
2021/06/22 12:23:42;;;;;;;37.08;6.35;;;;;;;;;;5096852;28;20024;-78
2021/06/22 12:26:09;;;;;;;40.72;6.75;;;;;;;;;;5097856;28;20131;-79
2021/06/22 12:28:35;;;;;;;35.45;5.93;;;;;;;;;;5097843;28;20021;-79
2021/06/22 12:31:04;;;;;;;37.70;8.20;;;;;;;;;;5097660;28;20433;-78
2021/06/22 12:33:35;;;;;;;34.17;7.30;;;;;;;;;;5096381;28;20444;-77
2021/06/22 12:36:02;;;;;;;42.78;6.53;;;;;;;;;;5097515;28;20020;-77
2021/06/22 12:38:29;;;;;;;39.50;7.22;;;;;;;;;;5097467;28;20066;-78
2021/06/22 12:40:56;;;;;;;35.50;7.00;;;;;;;;;;5096470;28;20028;-77
2021/06/22 12:43:39;;;;;;;28.55;6.60;;;;;;;;;;5097558;28;20310;-79
2021/06/22 12:46:05;;;;;;;39.78;7.25;;;;;;;;;;5097451;28;20031;-79
2021/06/22 12:48:32;;;;;;;35.72;6.78;;;;;;;;;;5096753;28;20328;-79
2021/06/22 12:50:58;;;;;;;39.28;7.28;;;;;;;;;;5097230;28;20031;-78
2021/06/22 12:53:24;;;;;;;36.03;7.05;;;;;;;;;;5097315;28;20016;-78
2021/06/22 12:55:55;;;;;;;37.50;6.28;;;;;;;;;;5096339;28;20108;-78
2021/06/22 12:58:21;;;;;;;43.63;6.93;;;;;;;;;;5087967;28;20089;-79
2021/06/22 13:00:51;;;;;;;42.63;6.50;;;;;;;;;;5086085;28;20421;-79
2021/06/22 13:03:18;;;;;;;41.00;7.30;;;;;;;;;;5097860;28;20054;-78
2021/06/22 13:05:45;;;;;;;43.88;7.63;;;;;;;;;;5097240;28;20028;-78
2021/06/22 13:08:17;;;;;;;36.50;7.30;;;;;;;;;;5097308;28;20461;-79
2021/06/22 13:10:49;;;;;;;38.83;7.28;;;;;;;;;;5097241;28;20065;-79
2021/06/22 13:13:29;;;;;;;32.53;6.60;;;;;;;;;;5097068;28;20012;-78
2021/06/22 13:16:08;;;;;;;40.33;7.15;;;;;;;;;;5096820;28;20127;-78
2021/06/22 13:18:53;;;;;;;38.72;8.02;;;;;;;;;;5097033;28;20089;-79
2021/06/22 13:21:19;;;;;;;36.63;7.22;;;;;;;;;;5097076;28;20074;-81
2021/06/22 13:23:45;;;;;;;46.13;7.80;;;;;;;;;;5095951;28;20055;-81
2021/06/22 13:26:11;;;;;;;36.00;8.27;;;;;;;;;;5096903;28;20060;-81
2021/06/22 13:28:37;;;;;;;35.78;6.80;;;;;;;;;;5101077;28;20069;-81
2021/06/22 13:31:13;;;;;;;41.15;7.57;;;;;;;;;;5100172;28;20039;-81
2021/06/22 13:33:39;;;;;;;34.33;6.53;;;;;;;;;;5101251;28;20036;-81
2021/06/22 13:36:05;;;;;;;42.28;7.90;;;;;;;;;;5100877;28;20402;-80
2021/06/22 13:38:35;;;;;;;43.13;7.10;;;;;;;;;;5100904;28;20183;-80
2021/06/22 13:41:02;;;;;;;44.37;7.90;;;;;;;;;;5101007;28;20047;-81
2021/06/22 13:43:30;;;;;;;31.50;6.97;;;;;;;;;;5100812;28;20039;-80
2021/06/22 13:45:57;;;;;;;45.85;7.30;;;;;;;;;;5099616;28;20074;-81
2021/06/22 13:48:24;;;;;;;37.28;7.40;;;;;;;;;;5100864;28;20031;-81
2021/06/22 13:50:52;;;;;;;35.70;7.30;;;;;;;;;;5100559;28;20087;-80
2021/06/22 13:53:22;;;;;;;34.08;6.20;;;;;;;;;;5100672;28;20020;-81
2021/06/22 13:55:48;;;;;;;33.65;7.72;;;;;;;;;;5100661;28;20111;-81
2021/06/22 13:58:17;;;;;;;39.10;7.60;;;;;;;;;;5100247;28;20066;-80
2021/06/22 14:00:44;;;;;;;46.22;7.75;;;;;;;;;;5100525;28;20144;-81
